X  Lukk Metar værinformasjon om luftfart     ENRY Moss Airport, Rygge
Temperatur
4°C Temperatur
1°C Duggpunkt
81% Luftfuktighet



Vind
6 M/S
13 MPT
21 KM/T
11 KNP



210°
SSV
Nåværende forhold

Klart Klart
Trykk 1019.92 (hPa) - 30.12 (inHg)
Sikt 6.2 (mil) - 10 (km)
Flyplass
Flyplass-kode ENRY

Plassering: Moss Airport, Rygge
Avstand: 12 (km)

Metar:
ENRY 240920Z 21011KT CAVOK 04/01 Q1020 NOSIG

Tid: 24-01-2022 10:20 CET